sensor_id;sensor_type;location;lat;lon;timestamp;pressure;altitude;pressure_sealevel;temperature;humidity
15678;BME280;7939;50.814;6.368;2023-02-12T00:01:01;102088.34;;;10.17;66.37
15678;BME280;7939;50.814;6.368;2023-02-12T00:03:28;102087.50;;;10.17;66.58
15678;BME280;7939;50.814;6.368;2023-02-12T00:05:59;102083.25;;;10.17;66.10
15678;BME280;7939;50.814;6.368;2023-02-12T00:08:26;102079.91;;;10.18;66.79
15678;BME280;7939;50.814;6.368;2023-02-12T00:10:53;102088.44;;;10.19;66.97
15678;BME280;7939;50.814;6.368;2023-02-12T00:13:20;102087.56;;;10.18;66.68
15678;BME280;7939;50.814;6.368;2023-02-12T00:15:46;102076.44;;;10.18;66.63
15678;BME280;7939;50.814;6.368;2023-02-12T00:18:13;102081.66;;;10.19;66.70
15678;BME280;7939;50.814;6.368;2023-02-12T00:20:40;102085.88;;;10.19;66.49
15678;BME280;7939;50.814;6.368;2023-02-12T00:23:09;102087.56;;;10.18;66.47
15678;BME280;7939;50.814;6.368;2023-02-12T00:25:40;102085.88;;;10.19;66.96
15678;BME280;7939;50.814;6.368;2023-02-12T00:28:07;102088.44;;;10.19;66.60
15678;BME280;7939;50.814;6.368;2023-02-12T00:30:34;102096.88;;;10.18;66.48
15678;BME280;7939;50.814;6.368;2023-02-12T00:33:00;102081.50;;;10.16;66.59
15678;BME280;7939;50.814;6.368;2023-02-12T00:35:27;102086.63;;;10.16;66.93
15678;BME280;7939;50.814;6.368;2023-02-12T00:37:53;102084.13;;;10.18;66.75
15678;BME280;7939;50.814;6.368;2023-02-12T00:40:21;102078.94;;;10.16;66.71
15678;BME280;7939;50.814;6.368;2023-02-12T00:42:48;102085.81;;;10.17;66.80
15678;BME280;7939;50.814;6.368;2023-02-12T00:45:14;102085.81;;;10.17;66.96
15678;BME280;7939;50.814;6.368;2023-02-12T00:47:42;102071.34;;;10.18;66.55
15678;BME280;7939;50.814;6.368;2023-02-12T00:50:09;102074.78;;;10.18;66.40
15678;BME280;7939;50.814;6.368;2023-02-12T00:52:36;102073.03;;;10.17;66.45
15678;BME280;7939;50.814;6.368;2023-02-12T00:55:03;102073.91;;;10.18;66.72
15678;BME280;7939;50.814;6.368;2023-02-12T00:57:31;102079.91;;;10.18;66.74
15678;BME280;7939;50.814;6.368;2023-02-12T00:59:58;102081.56;;;10.18;66.41
15678;BME280;7939;50.814;6.368;2023-02-12T01:02:24;102076.44;;;10.18;66.87
15678;BME280;7939;50.814;6.368;2023-02-12T01:04:51;102078.22;;;10.19;66.34
15678;BME280;7939;50.814;6.368;2023-02-12T01:07:18;102075.66;;;10.19;66.79
15678;BME280;7939;50.814;6.368;2023-02-12T01:09:44;102076.44;;;10.18;66.59
15678;BME280;7939;50.814;6.368;2023-02-12T01:12:11;102079.91;;;10.18;66.50
15678;BME280;7939;50.814;6.368;2023-02-12T01:14:39;102083.34;;;10.19;66.21
15678;BME280;7939;50.814;6.368;2023-02-12T01:17:06;102083.34;;;10.19;66.25
15678;BME280;7939;50.814;6.368;2023-02-12T01:19:33;102079.91;;;10.18;66.17
15678;BME280;7939;50.814;6.368;2023-02-12T01:21:59;102096.09;;;10.19;66.33
15678;BME280;7939;50.814;6.368;2023-02-12T01:24:26;102082.47;;;10.18;66.30
15678;BME280;7939;50.814;6.368;2023-02-12T01:26:53;102091.88;;;10.19;66.46
15678;BME280;7939;50.814;6.368;2023-02-12T01:29:20;102086.75;;;10.19;66.26
15678;BME280;7939;50.814;6.368;2023-02-12T01:31:48;102083.34;;;10.19;66.30
15678;BME280;7939;50.814;6.368;2023-02-12T01:34:15;102080.78;;;10.19;66.48
15678;BME280;7939;50.814;6.368;2023-02-12T01:36:42;102077.41;;;10.20;66.36
15678;BME280;7939;50.814;6.368;2023-02-12T01:39:10;102073.97;;;10.19;66.47
15678;BME280;7939;50.814;6.368;2023-02-12T01:41:40;102071.41;;;10.19;66.37
15678;BME280;7939;50.814;6.368;2023-02-12T01:44:10;102067.13;;;10.18;66.70
15678;BME280;7939;50.814;6.368;2023-02-12T01:46:38;102059.47;;;10.18;66.22
15678;BME280;7939;50.814;6.368;2023-02-12T01:49:10;102057.78;;;10.19;66.42
15678;BME280;7939;50.814;6.368;2023-02-12T01:51:38;102056.91;;;10.18;66.38
15678;BME280;7939;50.814;6.368;2023-02-12T01:54:07;102059.47;;;10.18;66.50
15678;BME280;7939;50.814;6.368;2023-02-12T01:56:35;102062.03;;;10.18;66.86
15678;BME280;7939;50.814;6.368;2023-02-12T01:59:03;102056.00;;;10.18;66.51
15678;BME280;7939;50.814;6.368;2023-02-12T02:01:31;102062.03;;;10.18;66.45
15678;BME280;7939;50.814;6.368;2023-02-12T02:04:00;102059.38;;;10.17;66.56
15678;BME280;7939;50.814;6.368;2023-02-12T02:06:31;102065.38;;;10.17;66.40
15678;BME280;7939;50.814;6.368;2023-02-12T02:09:00;102058.56;;;10.18;65.98
15678;BME280;7939;50.814;6.368;2023-02-12T02:11:27;102061.13;;;10.18;66.51
15678;BME280;7939;50.814;6.368;2023-02-12T02:14:11;102063.69;;;10.18;66.22
15678;BME280;7939;50.814;6.368;2023-02-12T02:17:04;102056.81;;;10.17;66.21
15678;BME280;7939;50.814;6.368;2023-02-12T02:19:46;102060.19;;;10.16;66.49
15678;BME280;7939;50.814;6.368;2023-02-12T02:22:30;102055.16;;;10.17;66.27
15678;BME280;7939;50.814;6.368;2023-02-12T02:25:23;102055.09;;;10.16;66.45
15678;BME280;7939;50.814;6.368;2023-02-12T02:28:06;102056.81;;;10.17;66.16
15678;BME280;7939;50.814;6.368;2023-02-12T02:30:42;102055.97;;;10.16;66.36
15678;BME280;7939;50.814;6.368;2023-02-12T02:33:21;102050.03;;;10.17;66.25
15678;BME280;7939;50.814;6.368;2023-02-12T02:35:54;102044.91;;;10.17;66.27
15678;BME280;7939;50.814;6.368;2023-02-12T02:38:31;102048.34;;;10.18;66.36
15678;BME280;7939;50.814;6.368;2023-02-12T02:41:02;102048.34;;;10.18;66.33
15678;BME280;7939;50.814;6.368;2023-02-12T02:43:34;102049.25;;;10.18;66.20
15678;BME280;7939;50.814;6.368;2023-02-12T02:46:06;102047.47;;;10.17;66.19
15678;BME280;7939;50.814;6.368;2023-02-12T02:48:36;102050.97;;;10.19;66.13
15678;BME280;7939;50.814;6.368;2023-02-12T02:51:08;102048.34;;;10.18;66.30
15678;BME280;7939;50.814;6.368;2023-02-12T02:53:38;102043.22;;;10.18;66.34
15678;BME280;7939;50.814;6.368;2023-02-12T02:56:11;102048.34;;;10.18;66.23
15678;BME280;7939;50.814;6.368;2023-02-12T02:58:42;102044.91;;;10.17;65.73
15678;BME280;7939;50.814;6.368;2023-02-12T03:01:14;102049.25;;;10.18;65.94
15678;BME280;7939;50.814;6.368;2023-02-12T03:03:46;102044.06;;;10.17;66.23
15678;BME280;7939;50.814;6.368;2023-02-12T03:06:21;102044.06;;;10.17;66.23
15678;BME280;7939;50.814;6.368;2023-02-12T03:08:50;102042.31;;;10.16;66.26
15678;BME280;7939;50.814;6.368;2023-02-12T03:11:22;102040.63;;;10.16;66.32
15678;BME280;7939;50.814;6.368;2023-02-12T03:13:55;102041.50;;;10.17;66.19
15678;BME280;7939;50.814;6.368;2023-02-12T03:16:25;102044.91;;;10.17;66.21
15678;BME280;7939;50.814;6.368;2023-02-12T03:18:54;102040.63;;;10.16;65.92
15678;BME280;7939;50.814;6.368;2023-02-12T03:21:30;102040.63;;;10.16;66.27
15678;BME280;7939;50.814;6.368;2023-02-12T03:24:00;102033.84;;;10.17;66.53
15678;BME280;7939;50.814;6.368;2023-02-12T03:26:37;102036.38;;;10.17;66.33
15678;BME280;7939;50.814;6.368;2023-02-12T03:29:06;102038.06;;;10.16;66.21
15678;BME280;7939;50.814;6.368;2023-02-12T03:31:40;102044.06;;;10.17;66.26
15678;BME280;7939;50.814;6.368;2023-02-12T03:34:13;102048.25;;;10.15;66.15
15678;BME280;7939;50.814;6.368;2023-02-12T03:36:46;102045.69;;;10.15;66.59
15678;BME280;7939;50.814;6.368;2023-02-12T03:39:20;102041.44;;;10.15;66.34
15678;BME280;7939;50.814;6.368;2023-02-12T03:41:57;102037.25;;;10.17;65.95
15678;BME280;7939;50.814;6.368;2023-02-12T03:44:37;102030.41;;;10.16;66.41
15678;BME280;7939;50.814;6.368;2023-02-12T03:47:16;102034.66;;;10.16;66.42
15678;BME280;7939;50.814;6.368;2023-02-12T03:49:49;102033.84;;;10.17;66.10
15678;BME280;7939;50.814;6.368;2023-02-12T03:52:19;102038.94;;;10.17;66.30
15678;BME280;7939;50.814;6.368;2023-02-12T03:54:45;102039.75;;;10.16;65.90
15678;BME280;7939;50.814;6.368;2023-02-12T03:57:16;102038.06;;;10.16;66.23
15678;BME280;7939;50.814;6.368;2023-02-12T03:59:43;102029.50;;;10.14;66.23
15678;BME280;7939;50.814;6.368;2023-02-12T04:02:13;102029.53;;;10.16;66.16
15678;BME280;7939;50.814;6.368;2023-02-12T04:04:40;102039.75;;;10.16;66.21
15678;BME280;7939;50.814;6.368;2023-02-12T04:07:07;102038.94;;;10.17;66.21
15678;BME280;7939;50.814;6.368;2023-02-12T04:09:34;102038.06;;;10.16;66.15
15678;BME280;7939;50.814;6.368;2023-02-12T04:12:14;102030.41;;;10.16;66.25
15678;BME280;7939;50.814;6.368;2023-02-12T04:14:50;102037.22;;;10.16;66.30
15678;BME280;7939;50.814;6.368;2023-02-12T04:17:25;102042.31;;;10.16;66.02
15678;BME280;7939;50.814;6.368;2023-02-12T04:20:03;102050.84;;;10.16;66.15
15678;BME280;7939;50.814;6.368;2023-02-12T04:22:43;102052.53;;;10.16;66.27
15678;BME280;7939;50.814;6.368;2023-02-12T04:25:20;102052.53;;;10.16;66.21
15678;BME280;7939;50.814;6.368;2023-02-12T04:27:57;102052.50;;;10.14;66.12
15678;BME280;7939;50.814;6.368;2023-02-12T04:30:28;102064.44;;;10.15;66.45
15678;BME280;7939;50.814;6.368;2023-02-12T04:33:01;102062.75;;;10.16;66.20
15678;BME280;7939;50.814;6.368;2023-02-12T04:35:30;102070.41;;;10.16;66.14
15678;BME280;7939;50.814;6.368;2023-02-12T04:38:02;102069.59;;;10.17;66.03
15678;BME280;7939;50.814;6.368;2023-02-12T04:40:33;102064.50;;;10.17;66.14
15678;BME280;7939;50.814;6.368;2023-02-12T04:43:00;102075.59;;;10.17;66.07
15678;BME280;7939;50.814;6.368;2023-02-12T04:45:29;102071.28;;;10.16;65.87
15678;BME280;7939;50.814;6.368;2023-02-12T04:47:57;102074.72;;;10.17;66.42
15678;BME280;7939;50.814;6.368;2023-02-12T04:50:25;102075.53;;;10.16;66.20
15678;BME280;7939;50.814;6.368;2023-02-12T04:52:52;102077.28;;;10.17;66.34
15678;BME280;7939;50.814;6.368;2023-02-12T04:55:18;102082.38;;;10.17;66.20
15678;BME280;7939;50.814;6.368;2023-02-12T04:57:45;102077.28;;;10.17;66.03
15678;BME280;7939;50.814;6.368;2023-02-12T05:00:13;102077.28;;;10.17;65.98
15678;BME280;7939;50.814;6.368;2023-02-12T05:02:39;102072.16;;;10.17;66.19
15678;BME280;7939;50.814;6.368;2023-02-12T05:05:06;102065.25;;;10.14;66.12
15678;BME280;7939;50.814;6.368;2023-02-12T05:07:34;102062.75;;;10.16;66.63
15678;BME280;7939;50.814;6.368;2023-02-12T05:10:01;102065.31;;;10.16;65.94
15678;BME280;7939;50.814;6.368;2023-02-12T05:12:27;102067.88;;;10.16;66.07
15678;BME280;7939;50.814;6.368;2023-02-12T05:14:54;102061.06;;;10.16;66.13
15678;BME280;7939;50.814;6.368;2023-02-12T05:17:21;102065.31;;;10.16;65.92
15678;BME280;7939;50.814;6.368;2023-02-12T05:19:48;102061.06;;;10.16;65.95
15678;BME280;7939;50.814;6.368;2023-02-12T05:22:14;102064.44;;;10.15;65.82
15678;BME280;7939;50.814;6.368;2023-02-12T05:24:42;102066.19;;;10.16;65.88
15678;BME280;7939;50.814;6.368;2023-02-12T05:27:09;102069.59;;;10.17;66.33
15678;BME280;7939;50.814;6.368;2023-02-12T05:29:36;102067.03;;;10.17;65.92
15678;BME280;7939;50.814;6.368;2023-02-12T05:32:03;102078.09;;;10.16;65.95
15678;BME280;7939;50.814;6.368;2023-02-12T05:34:31;102070.41;;;10.16;66.41
15678;BME280;7939;50.814;6.368;2023-02-12T05:36:57;102074.63;;;10.14;65.88
15678;BME280;7939;50.814;6.368;2023-02-12T05:39:24;102072.06;;;10.14;65.97
15678;BME280;7939;50.814;6.368;2023-02-12T05:41:52;102073.84;;;10.16;66.03
15678;BME280;7939;50.814;6.368;2023-02-12T05:44:19;102076.41;;;10.16;66.08
15678;BME280;7939;50.814;6.368;2023-02-12T05:46:45;102071.28;;;10.16;66.00
15678;BME280;7939;50.814;6.368;2023-02-12T05:49:12;102076.41;;;10.16;66.25
15678;BME280;7939;50.814;6.368;2023-02-12T05:51:39;102078.09;;;10.16;65.97
15678;BME280;7939;50.814;6.368;2023-02-12T05:54:06;102080.63;;;10.16;65.82
15678;BME280;7939;50.814;6.368;2023-02-12T05:56:34;102079.78;;;10.15;65.77
15678;BME280;7939;50.814;6.368;2023-02-12T05:59:04;102086.63;;;10.16;66.08
15678;BME280;7939;50.814;6.368;2023-02-12T06:01:33;102082.38;;;10.17;65.61
15678;BME280;7939;50.814;6.368;2023-02-12T06:04:01;102082.38;;;10.17;66.11
15678;BME280;7939;50.814;6.368;2023-02-12T06:06:29;102081.56;;;10.18;66.11
15678;BME280;7939;50.814;6.368;2023-02-12T06:08:57;102088.34;;;10.17;66.01
15678;BME280;7939;50.814;6.368;2023-02-12T06:11:24;102087.50;;;10.17;65.77
15678;BME280;7939;50.814;6.368;2023-02-12T06:13:50;102090.03;;;10.17;66.03
15678;BME280;7939;50.814;6.368;2023-02-12T06:16:20;102084.00;;;10.15;65.85
15678;BME280;7939;50.814;6.368;2023-02-12T06:18:48;102091.72;;;10.16;66.20
15678;BME280;7939;50.814;6.368;2023-02-12T06:21:15;102091.72;;;10.16;66.00
15678;BME280;7939;50.814;6.368;2023-02-12T06:23:42;102095.97;;;10.16;65.91
15678;BME280;7939;50.814;6.368;2023-02-12T06:26:09;102092.59;;;10.17;65.79
15678;BME280;7939;50.814;6.368;2023-02-12T06:28:35;102089.16;;;10.16;66.36
15678;BME280;7939;50.814;6.368;2023-02-12T06:31:02;102090.03;;;10.17;65.88
15678;BME280;7939;50.814;6.368;2023-02-12T06:33:30;102092.59;;;10.17;65.98
15678;BME280;7939;50.814;6.368;2023-02-12T06:36:02;102092.59;;;10.17;66.06
15678;BME280;7939;50.814;6.368;2023-02-12T06:38:29;102090.84;;;10.16;66.10
15678;BME280;7939;50.814;6.368;2023-02-12T06:40:55;102089.13;;;10.15;66.17
15678;BME280;7939;50.814;6.368;2023-02-12T06:43:22;102097.59;;;10.14;66.01
15678;BME280;7939;50.814;6.368;2023-02-12T06:45:49;102098.47;;;10.14;66.10
15678;BME280;7939;50.814;6.368;2023-02-12T06:48:16;102097.59;;;10.14;66.23
15678;BME280;7939;50.814;6.368;2023-02-12T06:50:44;102100.16;;;10.14;66.01
15678;BME280;7939;50.814;6.368;2023-02-12T06:53:10;102097.59;;;10.14;66.09
15678;BME280;7939;50.814;6.368;2023-02-12T06:55:37;102099.28;;;10.13;66.07
15678;BME280;7939;50.814;6.368;2023-02-12T06:58:04;102105.28;;;10.14;66.03
15678;BME280;7939;50.814;6.368;2023-02-12T07:00:31;102104.44;;;10.15;66.02
15678;BME280;7939;50.814;6.368;2023-02-12T07:02:58;102106.13;;;10.14;65.87
15678;BME280;7939;50.814;6.368;2023-02-12T07:05:24;102108.75;;;10.16;66.03
15678;BME280;7939;50.814;6.368;2023-02-12T07:07:52;102107.81;;;10.14;65.79
15678;BME280;7939;50.814;6.368;2023-02-12T07:10:24;102116.31;;;10.13;66.13
15678;BME280;7939;50.814;6.368;2023-02-12T07:12:51;102118.09;;;10.15;65.96
15678;BME280;7939;50.814;6.368;2023-02-12T07:15:19;102118.09;;;10.15;66.41
15678;BME280;7939;50.814;6.368;2023-02-12T07:17:46;102121.53;;;10.16;66.03
15678;BME280;7939;50.814;6.368;2023-02-12T07:20:13;102120.69;;;10.17;65.82
15678;BME280;7939;50.814;6.368;2023-02-12T07:22:40;102118.97;;;10.16;65.92
15678;BME280;7939;50.814;6.368;2023-02-12T07:25:08;102127.50;;;10.16;65.79
15678;BME280;7939;50.814;6.368;2023-02-12T07:27:35;102126.63;;;10.16;66.20
15678;BME280;7939;50.814;6.368;2023-02-12T07:30:02;102124.88;;;10.15;66.17
15678;BME280;7939;50.814;6.368;2023-02-12T07:32:30;102134.25;;;10.14;65.84
15678;BME280;7939;50.814;6.368;2023-02-12T07:34:57;102135.94;;;10.14;66.42
15678;BME280;7939;50.814;6.368;2023-02-12T07:37:24;102138.47;;;10.14;66.06
15678;BME280;7939;50.814;6.368;2023-02-12T07:39:50;102135.94;;;10.14;65.99
15678;BME280;7939;50.814;6.368;2023-02-12T07:42:19;102138.47;;;10.14;66.03
15678;BME280;7939;50.814;6.368;2023-02-12T07:44:47;102138.47;;;10.14;66.05
15678;BME280;7939;50.814;6.368;2023-02-12T07:47:14;102140.16;;;10.13;66.32
15678;BME280;7939;50.814;6.368;2023-02-12T07:49:40;102142.72;;;10.13;66.17
15678;BME280;7939;50.814;6.368;2023-02-12T07:52:08;102150.38;;;10.13;66.12
15678;BME280;7939;50.814;6.368;2023-02-12T07:54:34;102140.16;;;10.13;65.98
15678;BME280;7939;50.814;6.368;2023-02-12T07:57:01;102146.97;;;10.13;66.13
15678;BME280;7939;50.814;6.368;2023-02-12T07:59:29;102148.69;;;10.14;65.95
15678;BME280;7939;50.814;6.368;2023-02-12T08:01:55;102147.84;;;10.13;66.12
15678;BME280;7939;50.814;6.368;2023-02-12T08:04:24;102150.44;;;10.15;65.97
15678;BME280;7939;50.814;6.368;2023-02-12T08:06:52;102148.69;;;10.14;66.20
15678;BME280;7939;50.814;6.368;2023-02-12T08:09:21;102146.16;;;10.14;65.88
15678;BME280;7939;50.814;6.368;2023-02-12T08:11:48;102151.25;;;10.14;66.16
15678;BME280;7939;50.814;6.368;2023-02-12T08:14:17;102151.31;;;10.15;66.03
15678;BME280;7939;50.814;6.368;2023-02-12T08:16:47;102157.28;;;10.16;65.70
15678;BME280;7939;50.814;6.368;2023-02-12T08:19:14;102158.16;;;10.16;65.77
15678;BME280;7939;50.814;6.368;2023-02-12T08:21:41;102149.56;;;10.14;65.94
15678;BME280;7939;50.814;6.368;2023-02-12T08:24:08;102156.56;;;10.18;65.91
15678;BME280;7939;50.814;6.368;2023-02-12T08:26:37;102153.91;;;10.17;66.20
15678;BME280;7939;50.814;6.368;2023-02-12T08:29:06;102152.22;;;10.17;66.05
15678;BME280;7939;50.814;6.368;2023-02-12T08:31:35;102160.78;;;10.18;66.18
15678;BME280;7939;50.814;6.368;2023-02-12T08:34:04;102156.56;;;10.18;65.87
15678;BME280;7939;50.814;6.368;2023-02-12T08:36:35;102154.88;;;10.19;65.92
15678;BME280;7939;50.814;6.368;2023-02-12T08:39:02;102154.00;;;10.18;66.15
15678;BME280;7939;50.814;6.368;2023-02-12T08:41:29;102156.63;;;10.20;66.26
15678;BME280;7939;50.814;6.368;2023-02-12T08:43:57;102154.88;;;10.19;66.00
15678;BME280;7939;50.814;6.368;2023-02-12T08:46:26;102149.75;;;10.19;65.98
15678;BME280;7939;50.814;6.368;2023-02-12T08:48:53;102158.34;;;10.21;66.05
15678;BME280;7939;50.814;6.368;2023-02-12T08:51:24;102155.78;;;10.21;65.78
15678;BME280;7939;50.814;6.368;2023-02-12T08:53:55;102150.69;;;10.21;65.93
15678;BME280;7939;50.814;6.368;2023-02-12T08:56:23;102158.41;;;10.22;65.91
15678;BME280;7939;50.814;6.368;2023-02-12T08:58:50;102162.66;;;10.22;66.46
15678;BME280;7939;50.814;6.368;2023-02-12T09:01:19;102154.19;;;10.23;65.96
15678;BME280;7939;50.814;6.368;2023-02-12T09:03:46;102155.84;;;10.22;66.01
15678;BME280;7939;50.814;6.368;2023-02-12T09:06:14;102161.03;;;10.24;65.32
15678;BME280;7939;50.814;6.368;2023-02-12T09:08:43;102162.81;;;10.25;66.10
15678;BME280;7939;50.814;6.368;2023-02-12T09:11:12;102155.16;;;10.25;65.98
15678;BME280;7939;50.814;6.368;2023-02-12T09:13:41;102153.47;;;10.25;65.37
15678;BME280;7939;50.814;6.368;2023-02-12T09:16:09;102153.47;;;10.25;66.03
15678;BME280;7939;50.814;6.368;2023-02-12T09:18:36;102151.78;;;10.26;65.90
15678;BME280;7939;50.814;6.368;2023-02-12T09:21:05;102156.06;;;10.27;66.02
15678;BME280;7939;50.814;6.368;2023-02-12T09:23:31;102156.94;;;10.27;66.04
15678;BME280;7939;50.814;6.368;2023-02-12T09:26:02;102162.97;;;10.30;65.77
15678;BME280;7939;50.814;6.368;2023-02-12T09:28:29;102162.09;;;10.29;65.72
15678;BME280;7939;50.814;6.368;2023-02-12T09:30:56;102165.53;;;10.30;65.43
15678;BME280;7939;50.814;6.368;2023-02-12T09:33:23;102162.16;;;10.31;66.08
15678;BME280;7939;50.814;6.368;2023-02-12T09:35:49;102166.47;;;10.32;65.97
15678;BME280;7939;50.814;6.368;2023-02-12T09:38:16;102162.25;;;10.32;65.58
15678;BME280;7939;50.814;6.368;2023-02-12T09:40:48;102161.38;;;10.32;65.85
15678;BME280;7939;50.814;6.368;2023-02-12T09:43:28;102165.53;;;10.30;66.05
15678;BME280;7939;50.814;6.368;2023-02-12T09:45:59;102163.84;;;10.30;65.93
15678;BME280;7939;50.814;6.368;2023-02-12T09:48:47;102161.44;;;10.33;65.73
15678;BME280;7939;50.814;6.368;2023-02-12T09:51:20;102167.34;;;10.32;66.03
15678;BME280;7939;50.814;6.368;2023-02-12T09:53:59;102171.66;;;10.33;66.13
15678;BME280;7939;50.814;6.368;2023-02-12T09:56:28;102173.34;;;10.33;66.30
15678;BME280;7939;50.814;6.368;2023-02-12T09:58:58;102176.75;;;10.33;65.99
15678;BME280;7939;50.814;6.368;2023-02-12T10:01:26;102177.63;;;10.34;65.95
15678;BME280;7939;50.814;6.368;2023-02-12T10:03:53;102174.25;;;10.35;66.01
15678;BME280;7939;50.814;6.368;2023-02-12T10:06:23;102181.97;;;10.36;66.31
15678;BME280;7939;50.814;6.368;2023-02-12T10:09:19;102183.66;;;10.36;66.32
15678;BME280;7939;50.814;6.368;2023-02-12T10:11:56;102182.78;;;10.35;66.35
15678;BME280;7939;50.814;6.368;2023-02-12T10:14:39;102179.41;;;10.36;66.16
15678;BME280;7939;50.814;6.368;2023-02-12T10:17:14;102176.00;;;10.36;66.23
15678;BME280;7939;50.814;6.368;2023-02-12T10:19:54;102177.00;;;10.39;66.13
15678;BME280;7939;50.814;6.368;2023-02-12T10:22:33;102182.16;;;10.41;66.17
15678;BME280;7939;50.814;6.368;2023-02-12T10:25:12;102175.31;;;10.40;65.86
15678;BME280;7939;50.814;6.368;2023-02-12T10:27:46;102180.47;;;10.41;66.14
15678;BME280;7939;50.814;6.368;2023-02-12T10:30:19;102179.66;;;10.42;66.42
15678;BME280;7939;50.814;6.368;2023-02-12T10:32:50;102184.03;;;10.45;66.22
15678;BME280;7939;50.814;6.368;2023-02-12T10:35:20;102176.31;;;10.43;66.17
15678;BME280;7939;50.814;6.368;2023-02-12T10:37:52;102173.81;;;10.45;66.45
15678;BME280;7939;50.814;6.368;2023-02-12T10:40:22;102179.78;;;10.45;65.91
15678;BME280;7939;50.814;6.368;2023-02-12T10:42:52;102171.31;;;10.46;65.79
15678;BME280;7939;50.814;6.368;2023-02-12T10:45:24;102174.69;;;10.45;66.25
15678;BME280;7939;50.814;6.368;2023-02-12T10:48:00;102173.03;;;10.47;66.09
15678;BME280;7939;50.814;6.368;2023-02-12T10:50:40;102177.34;;;10.48;66.33
15678;BME280;7939;50.814;6.368;2023-02-12T10:53:12;102180.00;;;10.50;66.36
15678;BME280;7939;50.814;6.368;2023-02-12T10:55:40;102179.22;;;10.52;66.40
15678;BME280;7939;50.814;6.368;2023-02-12T10:58:18;102179.22;;;10.52;66.12
15678;BME280;7939;50.814;6.368;2023-02-12T11:00:55;102174.97;;;10.53;65.83
15678;BME280;7939;50.814;6.368;2023-02-12T11:03:27;102179.28;;;10.54;65.64
15678;BME280;7939;50.814;6.368;2023-02-12T11:05:54;102181.00;;;10.55;65.90
15678;BME280;7939;50.814;6.368;2023-02-12T11:08:32;102182.78;;;10.56;65.84
15678;BME280;7939;50.814;6.368;2023-02-12T11:11:05;102180.22;;;10.56;66.32
15678;BME280;7939;50.814;6.368;2023-02-12T11:13:32;102173.34;;;10.55;66.51
15678;BME280;7939;50.814;6.368;2023-02-12T11:16:02;102166.50;;;10.54;66.14
15678;BME280;7939;50.814;6.368;2023-02-12T11:18:31;102164.94;;;10.58;66.31
15678;BME280;7939;50.814;6.368;2023-02-12T11:21:00;102166.78;;;10.62;65.99
15678;BME280;7939;50.814;6.368;2023-02-12T11:23:30;102170.19;;;10.62;66.08
15678;BME280;7939;50.814;6.368;2023-02-12T11:25:59;102157.50;;;10.64;65.77
15678;BME280;7939;50.814;6.368;2023-02-12T11:28:26;102164.16;;;10.60;65.97
15678;BME280;7939;50.814;6.368;2023-02-12T11:30:57;102151.44;;;10.62;65.88
15678;BME280;7939;50.814;6.368;2023-02-12T11:33:30;102149.00;;;10.65;65.82
15678;BME280;7939;50.814;6.368;2023-02-12T11:35:59;102146.50;;;10.66;66.00
15678;BME280;7939;50.814;6.368;2023-02-12T11:38:32;102145.59;;;10.64;66.10
15678;BME280;7939;50.814;6.368;2023-02-12T11:41:07;102135.41;;;10.66;66.13
15678;BME280;7939;50.814;6.368;2023-02-12T11:43:43;102139.75;;;10.68;66.12
15678;BME280;7939;50.814;6.368;2023-02-12T11:46:18;102137.88;;;10.63;66.13
15678;BME280;7939;50.814;6.368;2023-02-12T11:48:47;102135.53;;;10.69;65.77
15678;BME280;7939;50.814;6.368;2023-02-12T11:51:19;102144.00;;;10.68;65.87
15678;BME280;7939;50.814;6.368;2023-02-12T11:53:48;102133.84;;;10.69;65.95
15678;BME280;7939;50.814;6.368;2023-02-12T11:56:15;102135.59;;;10.70;65.92
15678;BME280;7939;50.814;6.368;2023-02-12T11:58:44;102125.19;;;10.66;66.29
15678;BME280;7939;50.814;6.368;2023-02-12T12:01:17;102125.31;;;10.69;66.00
15678;BME280;7939;50.814;6.368;2023-02-12T12:03:53;102120.25;;;10.70;65.96
15678;BME280;7939;50.814;6.368;2023-02-12T12:06:28;102122.91;;;10.73;65.95
15678;BME280;7939;50.814;6.368;2023-02-12T12:09:02;102118.72;;;10.75;65.69
15678;BME280;7939;50.814;6.368;2023-02-12T12:11:37;102116.97;;;10.74;65.45
15678;BME280;7939;50.814;6.368;2023-02-12T12:14:13;102114.53;;;10.77;65.82
15678;BME280;7939;50.814;6.368;2023-02-12T12:16:48;102105.16;;;10.78;66.41
15678;BME280;7939;50.814;6.368;2023-02-12T12:19:42;102106.91;;;10.79;65.86
15678;BME280;7939;50.814;6.368;2023-02-12T12:22:48;102100.97;;;10.80;65.52
15678;BME280;7939;50.814;6.368;2023-02-12T12:25:21;102097.59;;;10.81;65.93
15678;BME280;7939;50.814;6.368;2023-02-12T12:27:56;102087.44;;;10.83;65.81
15678;BME280;7939;50.814;6.368;2023-02-12T12:30:47;102084.94;;;10.84;65.61
15678;BME280;7939;50.814;6.368;2023-02-12T12:33:24;102082.31;;;10.83;65.88
15678;BME280;7939;50.814;6.368;2023-02-12T12:36:02;102082.44;;;10.86;65.67
15678;BME280;7939;50.814;6.368;2023-02-12T12:38:40;102085.03;;;10.87;65.48
15678;BME280;7939;50.814;6.368;2023-02-12T12:41:17;102084.25;;;10.88;65.98
15678;BME280;7939;50.814;6.368;2023-02-12T12:43:55;102080.81;;;10.88;65.57
15678;BME280;7939;50.814;6.368;2023-02-12T12:46:33;102079.13;;;10.88;65.77
15678;BME280;7939;50.814;6.368;2023-02-12T12:49:29;102077.44;;;10.89;65.93
15678;BME280;7939;50.814;6.368;2023-02-12T12:52:23;102080.09;;;10.92;65.96
15678;BME280;7939;50.814;6.368;2023-02-12T12:55:10;102068.97;;;10.91;65.33
15678;BME280;7939;50.814;6.368;2023-02-12T12:57:45;102070.72;;;10.92;65.22
15678;BME280;7939;50.814;6.368;2023-02-12T13:03:42;102054.56;;;10.93;65.59
15678;BME280;7939;50.814;6.368;2023-02-12T13:06:29;102056.38;;;10.96;65.14
15678;BME280;7939;50.814;6.368;2023-02-12T13:09:10;102052.94;;;10.95;65.85
15678;BME280;7939;50.814;6.368;2023-02-12T13:11:50;102045.22;;;10.94;65.79
15678;BME280;7939;50.814;6.368;2023-02-12T13:14:34;102046.97;;;10.95;65.80
15678;BME280;7939;50.814;6.368;2023-02-12T13:17:12;102042.59;;;10.92;65.77
15678;BME280;7939;50.814;6.368;2023-02-12T13:19:54;102042.59;;;10.92;65.43
15678;BME280;7939;50.814;6.368;2023-02-12T13:22:30;102035.78;;;10.93;65.83